sensor_id;sensor_type;location;lat;lon;timestamp;pressure;altitude;pressure_sealevel;temperature;humidity
38054;BME280;23859;50.672;7.164;2022-10-17T00:00:33;100944.19;;;18.56;100.00
38054;BME280;23859;50.672;7.164;2022-10-17T00:02:59;100939.69;;;18.49;100.00
38054;BME280;23859;50.672;7.164;2022-10-17T00:05:26;100948.69;;;18.64;100.00
38054;BME280;23859;50.672;7.164;2022-10-17T00:07:52;100950.72;;;18.62;100.00
38054;BME280;23859;50.672;7.164;2022-10-17T00:10:19;100949.25;;;18.51;100.00
38054;BME280;23859;50.672;7.164;2022-10-17T00:12:46;100946.09;;;18.48;100.00
38054;BME280;23859;50.672;7.164;2022-10-17T00:15:16;100941.84;;;18.53;100.00
38054;BME280;23859;50.672;7.164;2022-10-17T00:17:42;100942.34;;;18.57;100.00
38054;BME280;23859;50.672;7.164;2022-10-17T00:20:08;100944.34;;;18.55;100.00
38054;BME280;23859;50.672;7.164;2022-10-17T00:22:34;100955.44;;;18.60;99.82
38054;BME280;23859;50.672;7.164;2022-10-17T00:25:00;100960.50;;;18.55;100.00
38054;BME280;23859;50.672;7.164;2022-10-17T00:27:26;100956.50;;;18.51;100.00
38054;BME280;23859;50.672;7.164;2022-10-17T00:29:52;100964.59;;;18.51;100.00
38054;BME280;23859;50.672;7.164;2022-10-17T00:32:19;100963.09;;;18.48;100.00
38054;BME280;23859;50.672;7.164;2022-10-17T00:34:45;100958.78;;;18.39;100.00
38054;BME280;23859;50.672;7.164;2022-10-17T00:37:11;100956.81;;;18.56;100.00
38054;BME280;23859;50.672;7.164;2022-10-17T00:39:37;100977.75;;;18.46;100.00
38054;BME280;23859;50.672;7.164;2022-10-17T00:42:04;100958.63;;;18.33;100.00
38054;BME280;23859;50.672;7.164;2022-10-17T00:47:02;100959.03;;;18.22;100.00
38054;BME280;23859;50.672;7.164;2022-10-17T00:49:31;100976.03;;;18.22;100.00
38054;BME280;23859;50.672;7.164;2022-10-17T00:52:02;100973.81;;;18.18;100.00
38054;BME280;23859;50.672;7.164;2022-10-17T00:54:53;100977.34;;;18.26;100.00
38054;BME280;23859;50.672;7.164;2022-10-17T00:57:21;100972.03;;;18.18;100.00
38054;BME280;23859;50.672;7.164;2022-10-17T00:59:50;100975.38;;;18.12;100.00
38054;BME280;23859;50.672;7.164;2022-10-17T01:02:19;100984.09;;;18.14;100.00
38054;BME280;23859;50.672;7.164;2022-10-17T01:04:47;100979.06;;;18.19;100.00
38054;BME280;23859;50.672;7.164;2022-10-17T01:07:15;100975.53;;;18.11;100.00
38054;BME280;23859;50.672;7.164;2022-10-17T01:09:42;100977.56;;;18.09;100.00
38054;BME280;23859;50.672;7.164;2022-10-17T01:12:24;100978.41;;;18.09;100.00
38054;BME280;23859;50.672;7.164;2022-10-17T01:25:46;100983.03;;;17.85;100.00
38054;BME280;23859;50.672;7.164;2022-10-17T01:31:14;100980.16;;;17.95;100.00
38054;BME280;23859;50.672;7.164;2022-10-17T01:34:02;100972.25;;;17.93;100.00
38054;BME280;23859;50.672;7.164;2022-10-17T01:39:22;100967.88;;;18.00;100.00
38054;BME280;23859;50.672;7.164;2022-10-17T01:42:05;100971.50;;;18.07;100.00
38054;BME280;23859;50.672;7.164;2022-10-17T01:44:38;100967.81;;;18.08;100.00
38054;BME280;23859;50.672;7.164;2022-10-17T01:47:09;100966.84;;;18.01;100.00
38054;BME280;23859;50.672;7.164;2022-10-17T01:49:39;100960.94;;;18.05;100.00
38054;BME280;23859;50.672;7.164;2022-10-17T01:52:17;100967.69;;;18.02;100.00
38054;BME280;23859;50.672;7.164;2022-10-17T01:54:51;100970.56;;;18.00;100.00
38054;BME280;23859;50.672;7.164;2022-10-17T01:57:31;100967.44;;;18.11;100.00
38054;BME280;23859;50.672;7.164;2022-10-17T01:59:58;100965.50;;;18.05;100.00
38054;BME280;23859;50.672;7.164;2022-10-17T02:02:26;100960.53;;;18.16;100.00
38054;BME280;23859;50.672;7.164;2022-10-17T02:04:54;100962.31;;;18.02;100.00
38054;BME280;23859;50.672;7.164;2022-10-17T02:07:21;100964.31;;;18.00;100.00
38054;BME280;23859;50.672;7.164;2022-10-17T02:09:48;100957.25;;;18.06;100.00
38054;BME280;23859;50.672;7.164;2022-10-17T02:18:38;100962.63;;;17.99;100.00
38054;BME280;23859;50.672;7.164;2022-10-17T02:26:41;100958.13;;;17.99;100.00
38054;BME280;23859;50.672;7.164;2022-10-17T02:29:14;100958.13;;;17.99;100.00
38054;BME280;23859;50.672;7.164;2022-10-17T02:31:58;100962.50;;;17.92;100.00
38054;BME280;23859;50.672;7.164;2022-10-17T02:34:33;100957.63;;;17.96;100.00
38054;BME280;23859;50.672;7.164;2022-10-17T02:37:04;100962.50;;;17.92;100.00
38054;BME280;23859;50.672;7.164;2022-10-17T02:39:32;100955.25;;;17.93;100.00
38054;BME280;23859;50.672;7.164;2022-10-17T02:42:03;100962.16;;;17.95;100.00
38054;BME280;23859;50.672;7.164;2022-10-17T02:44:32;100958.94;;;18.00;100.00
38054;BME280;23859;50.672;7.164;2022-10-17T02:47:15;100962.13;;;18.03;99.40
38054;BME280;23859;50.672;7.164;2022-10-17T02:49:49;100964.81;;;18.03;99.68
38054;BME280;23859;50.672;7.164;2022-10-17T02:52:27;100950.06;;;17.91;99.94
38054;BME280;23859;50.672;7.164;2022-10-17T02:57:53;100961.94;;;18.04;98.71
38054;BME280;23859;50.672;7.164;2022-10-17T03:00:21;100964.13;;;18.01;99.04
38054;BME280;23859;50.672;7.164;2022-10-17T03:02:50;100957.44;;;17.97;99.33
38054;BME280;23859;50.672;7.164;2022-10-17T03:05:20;100961.84;;;17.90;99.42
38054;BME280;23859;50.672;7.164;2022-10-17T03:07:47;100960.44;;;18.02;98.88
38054;BME280;23859;50.672;7.164;2022-10-17T03:10:13;100954.41;;;18.00;99.53
38054;BME280;23859;50.672;7.164;2022-10-17T03:12:39;100949.97;;;18.15;98.15
38054;BME280;23859;50.672;7.164;2022-10-17T03:15:06;100951.31;;;18.19;97.25
38054;BME280;23859;50.672;7.164;2022-10-17T03:17:33;100961.56;;;18.15;97.11
38054;BME280;23859;50.672;7.164;2022-10-17T03:19:59;100952.66;;;18.15;97.57
38054;BME280;23859;50.672;7.164;2022-10-17T03:22:25;100956.69;;;18.11;97.59
38054;BME280;23859;50.672;7.164;2022-10-17T03:24:51;100958.38;;;18.12;97.44
38054;BME280;23859;50.672;7.164;2022-10-17T03:27:17;100973.69;;;18.11;98.00
38054;BME280;23859;50.672;7.164;2022-10-17T03:29:43;100970.13;;;18.27;96.74
38054;BME280;23859;50.672;7.164;2022-10-17T03:32:09;100965.81;;;18.10;97.11
38054;BME280;23859;50.672;7.164;2022-10-17T03:34:35;100958.00;;;18.23;96.71
38054;BME280;23859;50.672;7.164;2022-10-17T03:37:01;100959.50;;;18.25;95.87
38054;BME280;23859;50.672;7.164;2022-10-17T03:39:27;100961.06;;;18.20;96.36
38054;BME280;23859;50.672;7.164;2022-10-17T03:41:53;100965.75;;;18.18;96.42
38054;BME280;23859;50.672;7.164;2022-10-17T03:44:19;100965.25;;;18.14;96.84
38054;BME280;23859;50.672;7.164;2022-10-17T03:46:45;100960.41;;;18.10;97.37
38054;BME280;23859;50.672;7.164;2022-10-17T03:49:11;100884.34;;;17.47;96.98
38054;BME280;23859;50.672;7.164;2022-10-17T03:51:38;100967.13;;;18.14;96.60
38054;BME280;23859;50.672;7.164;2022-10-17T03:54:04;100964.44;;;18.06;96.82
38054;BME280;23859;50.672;7.164;2022-10-17T03:56:30;100972.69;;;18.04;97.40
38054;BME280;23859;50.672;7.164;2022-10-17T03:58:56;100971.56;;;17.99;97.47
38054;BME280;23859;50.672;7.164;2022-10-17T04:01:23;100977.38;;;18.10;96.53
38054;BME280;23859;50.672;7.164;2022-10-17T04:03:53;100980.91;;;18.11;96.49
38054;BME280;23859;50.672;7.164;2022-10-17T04:06:20;100985.66;;;18.09;96.57
38054;BME280;23859;50.672;7.164;2022-10-17T04:08:46;100987.00;;;18.05;96.97
38054;BME280;23859;50.672;7.164;2022-10-17T04:11:18;100994.78;;;18.00;97.17
38054;BME280;23859;50.672;7.164;2022-10-17T04:13:44;101001.44;;;18.12;96.18
38054;BME280;23859;50.672;7.164;2022-10-17T04:16:15;100999.03;;;18.17;96.25
38054;BME280;23859;50.672;7.164;2022-10-17T04:18:42;101005.97;;;18.11;95.82
38054;BME280;23859;50.672;7.164;2022-10-17T04:21:09;101001.78;;;18.09;96.00
38054;BME280;23859;50.672;7.164;2022-10-17T04:23:35;100997.72;;;18.13;96.26
38054;BME280;23859;50.672;7.164;2022-10-17T04:26:02;101001.44;;;18.12;96.30
38054;BME280;23859;50.672;7.164;2022-10-17T04:28:29;100985.59;;;18.25;94.89
38054;BME280;23859;50.672;7.164;2022-10-17T04:31:00;100980.97;;;18.03;96.00
38054;BME280;23859;50.672;7.164;2022-10-17T04:33:26;100982.97;;;18.01;96.32
38054;BME280;23859;50.672;7.164;2022-10-17T04:36:00;100989.03;;;17.95;96.82
38054;BME280;23859;50.672;7.164;2022-10-17T04:38:27;100984.03;;;17.92;96.96
38054;BME280;23859;50.672;7.164;2022-10-17T04:40:57;101008.06;;;17.94;97.00
38054;BME280;23859;50.672;7.164;2022-10-17T04:43:23;100992.28;;;17.91;97.15
38054;BME280;23859;50.672;7.164;2022-10-17T04:45:49;100993.78;;;17.85;97.28
38054;BME280;23859;50.672;7.164;2022-10-17T04:48:15;100998.84;;;17.88;97.00
38054;BME280;23859;50.672;7.164;2022-10-17T04:50:41;100997.16;;;17.87;96.95
38054;BME280;23859;50.672;7.164;2022-10-17T04:53:17;101003.84;;;17.91;96.83
38054;BME280;23859;50.672;7.164;2022-10-17T04:55:43;101013.28;;;17.87;97.07
38054;BME280;23859;50.672;7.164;2022-10-17T04:58:09;101009.97;;;17.77;97.50
38054;BME280;23859;50.672;7.164;2022-10-17T05:00:35;101007.78;;;17.81;97.35
38054;BME280;23859;50.672;7.164;2022-10-17T05:03:01;101015.00;;;17.80;97.44
38054;BME280;23859;50.672;7.164;2022-10-17T05:05:27;101015.66;;;17.82;97.23
38054;BME280;23859;50.672;7.164;2022-10-17T05:07:53;101013.28;;;17.87;97.06
38054;BME280;23859;50.672;7.164;2022-10-17T05:10:19;101014.81;;;17.82;96.87
38054;BME280;23859;50.672;7.164;2022-10-17T05:12:47;101008.25;;;17.84;96.60
38054;BME280;23859;50.672;7.164;2022-10-17T05:15:13;100998.22;;;17.78;97.25
38054;BME280;23859;50.672;7.164;2022-10-17T05:17:40;100989.81;;;17.73;97.41
38054;BME280;23859;50.672;7.164;2022-10-17T05:20:06;100987.47;;;17.70;97.47
38054;BME280;23859;50.672;7.164;2022-10-17T05:22:33;100988.47;;;17.69;97.56
38054;BME280;23859;50.672;7.164;2022-10-17T05:24:59;100998.53;;;17.75;96.85
38054;BME280;23859;50.672;7.164;2022-10-17T05:27:25;100981.91;;;17.72;97.21
38054;BME280;23859;50.672;7.164;2022-10-17T05:29:51;100986.78;;;17.76;96.46
38054;BME280;23859;50.672;7.164;2022-10-17T05:32:17;100997.84;;;17.81;96.78
38054;BME280;23859;50.672;7.164;2022-10-17T05:34:43;100994.84;;;17.76;96.56
38054;BME280;23859;50.672;7.164;2022-10-17T05:37:09;100993.28;;;17.90;95.92
38054;BME280;23859;50.672;7.164;2022-10-17T05:39:35;101002.22;;;17.82;96.07
38054;BME280;23859;50.672;7.164;2022-10-17T05:42:01;101013.31;;;17.79;96.38
38054;BME280;23859;50.672;7.164;2022-10-17T05:44:27;101017.03;;;17.70;96.75
38054;BME280;23859;50.672;7.164;2022-10-17T05:46:53;101016.53;;;17.75;96.35
38054;BME280;23859;50.672;7.164;2022-10-17T05:49:19;101024.91;;;17.72;97.19
38054;BME280;23859;50.672;7.164;2022-10-17T05:51:45;101029.44;;;17.79;96.08
38054;BME280;23859;50.672;7.164;2022-10-17T05:54:11;101024.59;;;17.75;95.89
38054;BME280;23859;50.672;7.164;2022-10-17T05:56:37;101026.09;;;17.69;97.15
38054;BME280;23859;50.672;7.164;2022-10-17T05:59:04;101022.09;;;17.65;96.63
38054;BME280;23859;50.672;7.164;2022-10-17T06:01:30;101024.63;;;17.59;97.06
38054;BME280;23859;50.672;7.164;2022-10-17T06:03:56;101025.28;;;17.69;96.61
38054;BME280;23859;50.672;7.164;2022-10-17T06:06:22;101022.09;;;17.57;97.41
38054;BME280;23859;50.672;7.164;2022-10-17T06:08:48;101027.66;;;17.64;96.48
38054;BME280;23859;50.672;7.164;2022-10-17T06:11:14;101014.03;;;17.65;96.58
38054;BME280;23859;50.672;7.164;2022-10-17T06:13:41;101030.16;;;17.57;97.03
38054;BME280;23859;50.672;7.164;2022-10-17T06:16:07;101035.03;;;17.62;96.82
38054;BME280;23859;50.672;7.164;2022-10-17T06:18:33;101038.22;;;17.73;95.90
38054;BME280;23859;50.672;7.164;2022-10-17T06:21:21;101046.97;;;17.67;96.24
38054;BME280;23859;50.672;7.164;2022-10-17T06:23:48;101044.75;;;17.71;95.89
38054;BME280;23859;50.672;7.164;2022-10-17T06:26:14;101051.66;;;17.73;96.16
38054;BME280;23859;50.672;7.164;2022-10-17T06:28:40;101054.00;;;17.76;95.79
38054;BME280;23859;50.672;7.164;2022-10-17T06:31:07;101050.78;;;17.89;94.95
38054;BME280;23859;50.672;7.164;2022-10-17T06:33:34;101049.25;;;17.86;95.17
38054;BME280;23859;50.672;7.164;2022-10-17T06:36:00;101047.59;;;17.85;94.76
38054;BME280;23859;50.672;7.164;2022-10-17T06:38:27;101048.25;;;17.87;94.79
38054;BME280;23859;50.672;7.164;2022-10-17T06:40:53;101048.09;;;17.89;94.63
38054;BME280;23859;50.672;7.164;2022-10-17T06:43:22;101059.03;;;17.87;94.60
38054;BME280;23859;50.672;7.164;2022-10-17T06:45:48;101062.03;;;18.00;94.27
38054;BME280;23859;50.672;7.164;2022-10-17T06:48:14;101062.53;;;17.96;94.00
38054;BME280;23859;50.672;7.164;2022-10-17T06:50:40;101073.78;;;17.99;93.78
38054;BME280;23859;50.672;7.164;2022-10-17T06:53:06;101089.72;;;18.08;93.34
38054;BME280;23859;50.672;7.164;2022-10-17T06:55:32;101079.47;;;18.20;92.80
38054;BME280;23859;50.672;7.164;2022-10-17T06:57:58;101089.19;;;18.37;91.95
38054;BME280;23859;50.672;7.164;2022-10-17T07:00:24;101091.13;;;18.59;90.45
38054;BME280;23859;50.672;7.164;2022-10-17T07:02:51;101094.03;;;18.79;89.65
38054;BME280;23859;50.672;7.164;2022-10-17T07:05:17;101093.94;;;18.95;88.69
38054;BME280;23859;50.672;7.164;2022-10-17T07:07:44;100990.53;;;18.44;87.58
38054;BME280;23859;50.672;7.164;2022-10-17T07:10:11;101089.13;;;19.13;87.37
38054;BME280;23859;50.672;7.164;2022-10-17T07:12:37;101091.81;;;19.13;86.96
38054;BME280;23859;50.672;7.164;2022-10-17T07:15:04;101091.25;;;19.26;86.43
38054;BME280;23859;50.672;7.164;2022-10-17T07:17:30;101096.31;;;19.21;86.19
38054;BME280;23859;50.672;7.164;2022-10-17T07:19:56;101103.22;;;19.23;86.16
38054;BME280;23859;50.672;7.164;2022-10-17T07:22:22;101104.06;;;19.24;86.46
38054;BME280;23859;50.672;7.164;2022-10-17T07:24:49;101100.66;;;19.30;85.59
38054;BME280;23859;50.672;7.164;2022-10-17T07:27:15;101111.31;;;19.23;86.85
38054;BME280;23859;50.672;7.164;2022-10-17T07:29:41;101111.16;;;19.17;86.62
38054;BME280;23859;50.672;7.164;2022-10-17T07:32:07;101104.28;;;19.14;86.67
38054;BME280;23859;50.672;7.164;2022-10-17T07:34:34;101116.78;;;19.07;87.39
38054;BME280;23859;50.672;7.164;2022-10-17T07:37:01;101101.84;;;19.27;86.71
38054;BME280;23859;50.672;7.164;2022-10-17T07:39:27;101102.84;;;19.26;86.54
38054;BME280;23859;50.672;7.164;2022-10-17T07:41:53;101099.38;;;19.18;87.18
38054;BME280;23859;50.672;7.164;2022-10-17T07:44:20;101099.38;;;19.18;86.92
38054;BME280;23859;50.672;7.164;2022-10-17T07:46:46;101103.94;;;19.17;87.13
38054;BME280;23859;50.672;7.164;2022-10-17T07:49:12;101115.31;;;19.27;86.77
38054;BME280;23859;50.672;7.164;2022-10-17T07:51:38;101123.00;;;19.38;87.06
38054;BME280;23859;50.672;7.164;2022-10-17T07:54:05;101121.50;;;19.36;85.53
38054;BME280;23859;50.672;7.164;2022-10-17T07:56:31;101025.56;;;18.96;85.66
38054;BME280;23859;50.672;7.164;2022-10-17T07:58:58;101111.91;;;19.55;85.64
38054;BME280;23859;50.672;7.164;2022-10-17T08:01:24;101113.38;;;19.58;84.92
38054;BME280;23859;50.672;7.164;2022-10-17T08:03:51;101120.66;;;19.72;84.61
38054;BME280;23859;50.672;7.164;2022-10-17T08:06:17;101120.38;;;19.89;83.70
38054;BME280;23859;50.672;7.164;2022-10-17T08:08:44;101124.16;;;20.03;83.17
38054;BME280;23859;50.672;7.164;2022-10-17T08:11:12;101108.50;;;20.12;82.99
38054;BME280;23859;50.672;7.164;2022-10-17T08:13:39;101112.16;;;20.19;82.06
38054;BME280;23859;50.672;7.164;2022-10-17T08:16:07;101115.59;;;20.13;81.28
38054;BME280;23859;50.672;7.164;2022-10-17T08:18:35;101108.34;;;20.28;82.11
38054;BME280;23859;50.672;7.164;2022-10-17T08:21:02;101113.28;;;20.54;81.29
38054;BME280;23859;50.672;7.164;2022-10-17T08:23:31;101111.88;;;20.58;80.56
38054;BME280;23859;50.672;7.164;2022-10-17T08:26:00;101116.41;;;20.57;80.41
38054;BME280;23859;50.672;7.164;2022-10-17T08:28:27;101117.63;;;20.69;80.45
38054;BME280;23859;50.672;7.164;2022-10-17T08:31:00;101126.31;;;20.50;80.70
38054;BME280;23859;50.672;7.164;2022-10-17T08:33:26;101119.69;;;20.38;81.10
38054;BME280;23859;50.672;7.164;2022-10-17T08:35:52;101121.00;;;20.42;81.44
38054;BME280;23859;50.672;7.164;2022-10-17T08:38:18;101129.38;;;20.47;81.30
38054;BME280;23859;50.672;7.164;2022-10-17T08:40:48;101136.94;;;20.52;80.74
38054;BME280;23859;50.672;7.164;2022-10-17T08:43:31;101144.47;;;20.56;80.94
38054;BME280;23859;50.672;7.164;2022-10-17T08:46:05;101147.06;;;20.64;80.84
38054;BME280;23859;50.672;7.164;2022-10-17T08:48:40;101162.25;;;20.65;80.36
38054;BME280;23859;50.672;7.164;2022-10-17T08:51:23;101153.91;;;20.75;79.82
38054;BME280;23859;50.672;7.164;2022-10-17T08:53:57;101161.53;;;20.71;79.90
38054;BME280;23859;50.672;7.164;2022-10-17T08:56:38;101166.41;;;20.76;80.12
38054;BME280;23859;50.672;7.164;2022-10-17T08:59:09;101167.94;;;20.70;80.42
38054;BME280;23859;50.672;7.164;2022-10-17T09:01:43;101160.13;;;20.75;80.29
38054;BME280;23859;50.672;7.164;2022-10-17T09:04:41;101163.19;;;20.72;80.83
38054;BME280;23859;50.672;7.164;2022-10-17T09:07:21;101174.38;;;20.98;80.23
38054;BME280;23859;50.672;7.164;2022-10-17T09:10:20;101177.22;;;21.11;78.87
38054;BME280;23859;50.672;7.164;2022-10-17T09:18:29;101163.13;;;21.30;79.29
38054;BME280;23859;50.672;7.164;2022-10-17T09:21:08;101157.72;;;21.30;78.51
38054;BME280;23859;50.672;7.164;2022-10-17T09:23:44;101152.03;;;21.25;78.54
38054;BME280;23859;50.672;7.164;2022-10-17T09:26:12;101154.81;;;21.31;77.56
38054;BME280;23859;50.672;7.164;2022-10-17T09:28:39;101167.78;;;21.36;78.14
38054;BME280;23859;50.672;7.164;2022-10-17T09:33:48;101173.34;;;21.69;76.84
38054;BME280;23859;50.672;7.164;2022-10-17T09:36:23;101182.13;;;21.71;76.57
38054;BME280;23859;50.672;7.164;2022-10-17T09:38:58;101188.75;;;21.69;77.71
38054;BME280;23859;50.672;7.164;2022-10-17T09:47:46;101205.44;;;22.69;73.21
38054;BME280;23859;50.672;7.164;2022-10-17T09:49:50;101208.44;;;22.46;73.98
38054;BME280;23859;50.672;7.164;2022-10-17T09:55:05;101234.19;;;22.63;73.17
38054;BME280;23859;50.672;7.164;2022-10-17T09:57:57;101222.00;;;22.46;74.13
38054;BME280;23859;50.672;7.164;2022-10-17T10:00:36;101232.25;;;22.30;74.55
38054;BME280;23859;50.672;7.164;2022-10-17T10:03:23;101232.59;;;22.41;73.95
38054;BME280;23859;50.672;7.164;2022-10-17T10:06:13;101216.13;;;22.43;73.99
38054;BME280;23859;50.672;7.164;2022-10-17T10:08:58;101217.25;;;22.88;72.50
38054;BME280;23859;50.672;7.164;2022-10-17T10:11:51;101209.28;;;23.74;69.74
38054;BME280;23859;50.672;7.164;2022-10-17T10:14:20;101212.47;;;24.29;65.53
38054;BME280;23859;50.672;7.164;2022-10-17T10:16:47;101217.16;;;25.17;63.60
38054;BME280;23859;50.672;7.164;2022-10-17T10:22:00;101219.38;;;26.63;57.76
38054;BME280;23859;50.672;7.164;2022-10-17T10:24:27;101221.81;;;26.71;57.08
38054;BME280;23859;50.672;7.164;2022-10-17T10:26:56;101225.63;;;26.45;58.33
38054;BME280;23859;50.672;7.164;2022-10-17T10:29:34;101234.44;;;25.86;59.54
38054;BME280;23859;50.672;7.164;2022-10-17T10:32:17;101239.75;;;25.31;60.75
38054;BME280;23859;50.672;7.164;2022-10-17T10:37:37;101244.06;;;24.23;65.72
38054;BME280;23859;50.672;7.164;2022-10-17T10:40:15;101240.69;;;24.09;65.96
38054;BME280;23859;50.672;7.164;2022-10-17T10:42:46;101250.69;;;25.11;63.01
38054;BME280;23859;50.672;7.164;2022-10-17T10:45:19;101253.41;;;25.61;61.44
38054;BME280;23859;50.672;7.164;2022-10-17T10:47:56;101252.94;;;25.77;60.09
38054;BME280;23859;50.672;7.164;2022-10-17T10:50:37;101247.81;;;25.94;59.19
38054;BME280;23859;50.672;7.164;2022-10-17T10:53:25;101247.31;;;26.03;59.54
38054;BME280;23859;50.672;7.164;2022-10-17T10:55:57;101259.84;;;25.80;59.86
38054;BME280;23859;50.672;7.164;2022-10-17T11:00:50;101270.41;;;24.81;63.70
38054;BME280;23859;50.672;7.164;2022-10-17T11:03:32;101262.25;;;24.75;63.49
38054;BME280;23859;50.672;7.164;2022-10-17T11:06:11;101277.91;;;24.15;65.17
38054;BME280;23859;50.672;7.164;2022-10-17T11:08:44;101284.16;;;24.02;66.98
38054;BME280;23859;50.672;7.164;2022-10-17T11:13:53;101288.78;;;23.55;68.98
38054;BME280;23859;50.672;7.164;2022-10-17T11:16:30;101292.75;;;23.52;68.72
38054;BME280;23859;50.672;7.164;2022-10-17T11:19:03;101298.34;;;23.45;69.35
38054;BME280;23859;50.672;7.164;2022-10-17T11:24:27;101293.00;;;23.17;70.50
38054;BME280;23859;50.672;7.164;2022-10-17T11:27:02;101288.72;;;23.02;70.93
38054;BME280;23859;50.672;7.164;2022-10-17T11:29:32;101285.88;;;23.16;71.27
38054;BME280;23859;50.672;7.164;2022-10-17T11:32:06;101283.28;;;23.02;71.69
38054;BME280;23859;50.672;7.164;2022-10-17T11:34:40;101276.41;;;23.06;71.62
38054;BME280;23859;50.672;7.164;2022-10-17T11:37:17;101268.69;;;23.03;71.99
38054;BME280;23859;50.672;7.164;2022-10-17T11:39:54;101269.06;;;23.00;71.91
38054;BME280;23859;50.672;7.164;2022-10-17T11:42:29;101275.50;;;23.26;70.11
38054;BME280;23859;50.672;7.164;2022-10-17T11:44:58;101281.00;;;23.39;70.73
38054;BME280;23859;50.672;7.164;2022-10-17T11:47:44;101277.63;;;23.37;69.82
38054;BME280;23859;50.672;7.164;2022-10-17T11:50:34;101276.81;;;23.37;70.95
38054;BME280;23859;50.672;7.164;2022-10-17T11:53:15;101276.28;;;23.60;69.85
38054;BME280;23859;50.672;7.164;2022-10-17T11:55:42;101270.38;;;23.50;70.39
38054;BME280;23859;50.672;7.164;2022-10-17T12:07:25;101276.81;;;23.37;71.20
38054;BME280;23859;50.672;7.164;2022-10-17T12:12:35;101285.06;;;23.16;71.70
38054;BME280;23859;50.672;7.164;2022-10-17T12:17:59;101289.03;;;23.20;72.68
38054;BME280;23859;50.672;7.164;2022-10-17T12:20:30;101291.44;;;23.02;73.44
38054;BME280;23859;50.672;7.164;2022-10-17T12:22:59;101284.91;;;22.96;73.08
38054;BME280;23859;50.672;7.164;2022-10-17T12:25:30;101284.84;;;22.90;73.70
38054;BME280;23859;50.672;7.164;2022-10-17T12:28:11;101284.78;;;22.77;73.95
38054;BME280;23859;50.672;7.164;2022-10-17T12:30:56;101284.81;;;22.83;74.26
38054;BME280;23859;50.672;7.164;2022-10-17T12:33:36;101283.19;;;22.89;73.59
38054;BME280;23859;50.672;7.164;2022-10-17T12:49:41;101307.41;;;22.90;75.51
38054;BME280;23859;50.672;7.164;2022-10-17T12:52:25;101307.78;;;22.87;75.06
38054;BME280;23859;50.672;7.164;2022-10-17T12:55:10;101299.94;;;22.72;75.37
38054;BME280;23859;50.672;7.164;2022-10-17T13:00:17;101303.78;;;22.83;76.19
38054;BME280;23859;50.672;7.164;2022-10-17T13:02:44;101297.78;;;22.88;76.06
38054;BME280;23859;50.672;7.164;2022-10-17T13:05:24;101314.94;;;22.68;76.53
38054;BME280;23859;50.672;7.164;2022-10-17T13:07:53;101314.09;;;22.67;76.11
38054;BME280;23859;50.672;7.164;2022-10-17T13:10:25;101320.09;;;22.63;77.26
38054;BME280;23859;50.672;7.164;2022-10-17T13:13:00;101326.81;;;22.67;76.73
38054;BME280;23859;50.672;7.164;2022-10-17T13:15:28;101326.97;;;22.59;77.58
38054;BME280;23859;50.672;7.164;2022-10-17T13:17:58;101324.13;;;22.46;78.18
38054;BME280;23859;50.672;7.164;2022-10-17T13:20:28;101331.72;;;22.57;77.65
38054;BME280;23859;50.672;7.164;2022-10-17T13:22:55;101334.94;;;22.67;76.77
38054;BME280;23859;50.672;7.164;2022-10-17T13:25:23;101331.09;;;22.55;78.54
38054;BME280;23859;50.672;7.164;2022-10-17T13:27:50;101331.69;;;22.50;79.46
38054;BME280;23859;50.672;7.164;2022-10-17T13:30:31;101338.84;;;22.37;79.22
38054;BME280;23859;50.672;7.164;2022-10-17T13:32:58;101333.38;;;22.51;78.18
38054;BME280;23859;50.672;7.164;2022-10-17T13:35:35;101348.91;;;22.43;79.25
38054;BME280;23859;50.672;7.164;2022-10-17T13:38:05;101355.69;;;22.32;78.94
38054;BME280;23859;50.672;7.164;2022-10-17T13:40:40;101356.63;;;22.25;78.45
38054;BME280;23859;50.672;7.164;2022-10-17T13:43:14;101348.50;;;22.25;78.58
38054;BME280;23859;50.672;7.164;2022-10-17T13:45:48;101362.22;;;22.23;78.98
38054;BME280;23859;50.672;7.164;2022-10-17T13:48:24;101357.78;;;22.16;77.89
38054;BME280;23859;50.672;7.164;2022-10-17T13:50:54;101353.38;;;22.15;78.02
38054;BME280;23859;50.672;7.164;2022-10-17T13:53:25;101354.22;;;22.15;77.57
38054;BME280;23859;50.672;7.164;2022-10-17T13:56:05;101354.81;;;22.11;78.49
38054;BME280;23859;50.672;7.164;2022-10-17T13:58:43;101358.09;;;22.07;78.43
38054;BME280;23859;50.672;7.164;2022-10-17T14:01:10;101356.34;;;22.20;78.20
38054;BME280;23859;50.672;7.164;2022-10-17T14:03:37;101363.00;;;22.17;80.46
38054;BME280;23859;50.672;7.164;2022-10-17T14:06:12;101366.88;;;22.09;79.71
38054;BME280;23859;50.672;7.164;2022-10-17T14:09:07;101355.94;;;22.02;78.30
38054;BME280;23859;50.672;7.164;2022-10-17T14:11:42;101363.19;;;22.16;78.63
38054;BME280;23859;50.672;7.164;2022-10-17T14:14:21;101360.50;;;22.16;78.21
38054;BME280;23859;50.672;7.164;2022-10-17T14:16:47;101355.91;;;22.16;77.37
38054;BME280;23859;50.672;7.164;2022-10-17T14:19:31;101354.22;;;22.15;78.41
38054;BME280;23859;50.672;7.164;2022-10-17T14:22:13;101356.84;;;22.09;80.36
38054;BME280;23859;50.672;7.164;2022-10-17T14:24:40;101368.34;;;22.11;79.49
38054;BME280;23859;50.672;7.164;2022-10-17T14:27:29;101365.66;;;22.11;80.72
38054;BME280;23859;50.672;7.164;2022-10-17T14:29:58;101363.31;;;22.08;81.41
38054;BME280;23859;50.672;7.164;2022-10-17T14:32:27;101365.38;;;22.06;82.18
38054;BME280;23859;50.672;7.164;2022-10-17T14:34:55;101363.16;;;21.95;81.95
38054;BME280;23859;50.672;7.164;2022-10-17T14:37:42;101369.81;;;21.93;83.00
38054;BME280;23859;50.672;7.164;2022-10-17T14:40:17;101375.13;;;21.86;84.46